Time;durP1;ratioP1;P1;durP2;ratioP2;P2;SDS_P1;SDS_P2;PMS_P1;PMS_P2;Temp;Humidity;BMP_temperature;BMP_pressure;BME280_temperature;BME280_humidity;BME280_pressure;Samples;Min_cycle;Max_cycle;Signal;HPM_P1;HPM_P2
2024/04/26 00:02:08;;;;;;;1.10;0.83;;;;;;;;;;6671383;26;20038;-75
2024/04/26 00:05:09;;;;;;;0.90;0.77;;;;;;;;;;6689022;26;20044;-75
2024/04/26 00:08:09;;;;;;;1.90;0.83;;;;;;;;;;6688256;26;20011;-75
2024/04/26 00:11:09;;;;;;;0.70;0.70;;;;;;;;;;6686613;26;20024;-75
2024/04/26 00:14:09;;;;;;;1.00;0.77;;;;;;;;;;6685645;26;19999;-75
2024/04/26 00:17:10;;;;;;;1.10;0.73;;;;;;;;;;6687803;26;20073;-75
2024/04/26 00:20:10;;;;;;;2.60;0.80;;;;;;;;;;6715012;26;19996;-75
2024/04/26 00:23:11;;;;;;;1.07;0.80;;;;;;;;;;6682401;26;20477;-75
2024/04/26 00:26:11;;;;;;;0.83;0.60;;;;;;;;;;6680166;26;20333;-75
2024/04/26 00:29:11;;;;;;;1.30;0.70;;;;;;;;;;6684587;26;20461;-75
2024/04/26 00:32:11;;;;;;;1.17;0.73;;;;;;;;;;6684129;26;20404;-75
2024/04/26 00:35:11;;;;;;;0.90;0.70;;;;;;;;;;6683777;26;20514;-75
2024/04/26 00:38:12;;;;;;;1.03;0.80;;;;;;;;;;6679917;26;20429;-75
2024/04/26 00:41:12;;;;;;;1.47;0.87;;;;;;;;;;6695188;26;19995;-75
2024/04/26 00:44:13;;;;;;;1.73;0.80;;;;;;;;;;6696044;26;20018;-76
2024/04/26 00:47:13;;;;;;;0.60;0.60;;;;;;;;;;6649230;26;20005;-75
2024/04/26 00:50:14;;;;;;;0.60;0.60;;;;;;;;;;6680467;26;20018;-75
2024/04/26 00:53:15;;;;;;;0.50;0.50;;;;;;;;;;6685022;26;20746;-75
2024/04/26 00:56:15;;;;;;;1.77;0.68;;;;;;;;;;6687965;26;20402;-75
2024/04/26 00:59:15;;;;;;;0.73;0.60;;;;;;;;;;6679987;26;20340;-75
2024/04/26 01:02:20;;;;;;;0.73;0.50;;;;;;;;;;6688568;26;20493;-75
2024/04/26 01:05:20;;;;;;;0.63;0.63;;;;;;;;;;6692775;26;20007;-75
2024/04/26 01:08:20;;;;;;;0.90;0.80;;;;;;;;;;6691242;26;20429;-76
2024/04/26 01:11:21;;;;;;;0.80;0.70;;;;;;;;;;6684545;26;19996;-75
2024/04/26 01:14:21;;;;;;;0.80;0.60;;;;;;;;;;6650079;26;20032;-75
2024/04/26 01:17:21;;;;;;;0.60;0.50;;;;;;;;;;6685161;26;19988;-75
2024/04/26 01:20:21;;;;;;;0.70;0.63;;;;;;;;;;6695128;26;19996;-75
2024/04/26 01:23:22;;;;;;;0.80;0.70;;;;;;;;;;6688237;26;19999;-75
2024/04/26 01:26:22;;;;;;;0.57;0.57;;;;;;;;;;6691542;26;20036;-75
2024/04/26 01:29:23;;;;;;;0.63;0.60;;;;;;;;;;6688552;26;20069;-75
2024/04/26 01:32:23;;;;;;;0.63;0.60;;;;;;;;;;6702477;26;19992;-75
2024/04/26 01:35:23;;;;;;;1.03;0.53;;;;;;;;;;6683717;26;20004;-75
2024/04/26 01:38:24;;;;;;;0.70;0.70;;;;;;;;;;6704221;26;20439;-75
2024/04/26 01:41:25;;;;;;;0.80;0.57;;;;;;;;;;6687987;26;20051;-75
2024/04/26 01:44:25;;;;;;;0.63;0.63;;;;;;;;;;6688656;26;20415;-75
2024/04/26 01:47:25;;;;;;;1.27;0.53;;;;;;;;;;6681968;26;20303;-75
2024/04/26 01:50:26;;;;;;;0.93;0.60;;;;;;;;;;6691271;26;19988;-75
2024/04/26 01:53:26;;;;;;;0.97;0.50;;;;;;;;;;6684602;26;19992;-75
2024/04/26 01:56:26;;;;;;;0.80;0.60;;;;;;;;;;6682960;26;19993;-75
2024/04/26 01:59:26;;;;;;;0.73;0.63;;;;;;;;;;6693788;26;20016;-75
2024/04/26 02:02:27;;;;;;;0.57;0.50;;;;;;;;;;6681511;26;20066;-77
2024/04/26 02:05:27;;;;;;;1.43;0.70;;;;;;;;;;6682970;26;19996;-77
2024/04/26 02:08:27;;;;;;;0.90;0.60;;;;;;;;;;6685661;26;19993;-77
2024/04/26 02:11:28;;;;;;;0.80;0.53;;;;;;;;;;6680545;26;20003;-77
2024/04/26 02:14:28;;;;;;;1.40;0.60;;;;;;;;;;6680322;26;19992;-77
2024/04/26 02:17:28;;;;;;;0.60;0.47;;;;;;;;;;6691301;26;20010;-77
2024/04/26 02:20:29;;;;;;;0.60;0.60;;;;;;;;;;6708173;26;19988;-77
2024/04/26 02:23:29;;;;;;;0.70;0.47;;;;;;;;;;6686272;26;19996;-77
2024/04/26 02:26:29;;;;;;;0.60;0.60;;;;;;;;;;6657131;26;20505;-77
2024/04/26 02:29:29;;;;;;;0.90;0.50;;;;;;;;;;6694396;26;19988;-77
2024/04/26 02:32:30;;;;;;;0.63;0.60;;;;;;;;;;6696668;26;19992;-77
2024/04/26 02:35:30;;;;;;;0.43;0.43;;;;;;;;;;6695154;26;20041;-77
2024/04/26 02:38:30;;;;;;;0.97;0.60;;;;;;;;;;6661777;26;20004;-77
2024/04/26 02:41:31;;;;;;;0.40;0.40;;;;;;;;;;6664512;26;19996;-77
2024/04/26 02:44:31;;;;;;;0.60;0.53;;;;;;;;;;6700860;26;20149;-77
2024/04/26 02:47:31;;;;;;;0.50;0.50;;;;;;;;;;6689380;26;19992;-77
2024/04/26 02:50:32;;;;;;;0.60;0.50;;;;;;;;;;6683349;26;20015;-77
2024/04/26 02:53:32;;;;;;;0.40;0.40;;;;;;;;;;6679458;26;20455;-77
2024/04/26 02:56:32;;;;;;;0.47;0.40;;;;;;;;;;6691922;26;20462;-77
2024/04/26 02:59:33;;;;;;;0.93;0.70;;;;;;;;;;6685537;26;20003;-77
2024/04/26 03:02:33;;;;;;;0.53;0.40;;;;;;;;;;6680993;26;19999;-77
2024/04/26 03:05:33;;;;;;;0.50;0.50;;;;;;;;;;6679714;26;20069;-78
2024/04/26 03:08:33;;;;;;;0.77;0.50;;;;;;;;;;6694333;26;20057;-77
2024/04/26 03:11:34;;;;;;;0.57;0.40;;;;;;;;;;6686653;26;20015;-78
2024/04/26 03:14:34;;;;;;;0.57;0.57;;;;;;;;;;6697316;26;20000;-77
2024/04/26 03:17:37;;;;;;;0.77;0.53;;;;;;;;;;6682235;26;19988;-78
2024/04/26 03:20:37;;;;;;;0.60;0.40;;;;;;;;;;6684918;26;20509;-78
2024/04/26 03:23:38;;;;;;;0.73;0.50;;;;;;;;;;6684619;26;19996;-77
2024/04/26 03:26:38;;;;;;;0.60;0.50;;;;;;;;;;6683829;26;20018;-77
2024/04/26 03:29:38;;;;;;;0.50;0.43;;;;;;;;;;6684839;26;20036;-77
2024/04/26 03:32:39;;;;;;;0.83;0.60;;;;;;;;;;6693061;26;20023;-78
2024/04/26 03:35:40;;;;;;;0.50;0.50;;;;;;;;;;6686403;26;20336;-78
2024/04/26 03:38:40;;;;;;;1.13;0.50;;;;;;;;;;6682760;26;20043;-77
2024/04/26 03:41:40;;;;;;;0.90;0.60;;;;;;;;;;6680255;26;19997;-77
2024/04/26 03:44:40;;;;;;;0.70;0.40;;;;;;;;;;6686972;26;20374;-77
2024/04/26 03:47:43;;;;;;;0.87;0.60;;;;;;;;;;6691581;26;19995;-77
2024/04/26 03:50:44;;;;;;;0.88;0.60;;;;;;;;;;6686529;26;20000;-78
2024/04/26 03:53:45;;;;;;;0.68;0.52;;;;;;;;;;6691033;26;20326;-77
2024/04/26 03:56:45;;;;;;;0.50;0.50;;;;;;;;;;6692334;26;20003;-78
2024/04/26 03:59:45;;;;;;;0.40;0.40;;;;;;;;;;6679964;26;20006;-77
2024/04/26 04:02:45;;;;;;;0.50;0.50;;;;;;;;;;6679747;26;20012;-77
2024/04/26 04:05:46;;;;;;;0.40;0.40;;;;;;;;;;6681414;26;20000;-77
2024/04/26 04:08:47;;;;;;;0.47;0.47;;;;;;;;;;6689389;26;20033;-78
2024/04/26 04:11:47;;;;;;;0.70;0.47;;;;;;;;;;6676349;26;20046;-77
2024/04/26 04:14:47;;;;;;;0.50;0.43;;;;;;;;;;6693009;26;19992;-77
2024/04/26 04:17:47;;;;;;;0.40;0.40;;;;;;;;;;6682180;26;19989;-77
2024/04/26 04:20:49;;;;;;;0.97;0.70;;;;;;;;;;6680512;26;20023;-77
2024/04/26 04:23:50;;;;;;;1.35;0.88;;;;;;;;;;6713182;26;20008;-77
2024/04/26 04:26:50;;;;;;;0.53;0.50;;;;;;;;;;6691784;26;20078;-77
2024/04/26 04:29:50;;;;;;;0.80;0.70;;;;;;;;;;6685767;26;20551;-77
2024/04/26 04:32:50;;;;;;;0.50;0.40;;;;;;;;;;6700509;26;20372;-77
2024/04/26 04:35:51;;;;;;;0.50;0.50;;;;;;;;;;6693826;26;19991;-78
2024/04/26 04:38:51;;;;;;;2.80;1.48;;;;;;;;;;6651192;26;20402;-78
2024/04/26 04:41:54;;;;;;;1.17;1.07;;;;;;;;;;6684243;26;20006;-78
2024/04/26 04:44:55;;;;;;;1.88;1.00;;;;;;;;;;6691179;26;20105;-78
2024/04/26 04:47:55;;;;;;;0.88;0.70;;;;;;;;;;6680067;26;20338;-78
2024/04/26 04:50:55;;;;;;;0.87;0.70;;;;;;;;;;6706253;26;20343;-77
2024/04/26 04:53:56;;;;;;;1.73;0.60;;;;;;;;;;6694026;26;20437;-77
2024/04/26 04:56:56;;;;;;;2.50;0.83;;;;;;;;;;6695627;26;20478;-77
2024/04/26 04:59:56;;;;;;;0.70;0.53;;;;;;;;;;6688086;26;20409;-77
2024/04/26 05:02:56;;;;;;;0.50;0.47;;;;;;;;;;6685152;26;20441;-78
2024/04/26 05:05:57;;;;;;;1.00;0.50;;;;;;;;;;6687963;26;20012;-77
2024/04/26 05:08:57;;;;;;;0.60;0.50;;;;;;;;;;6686043;26;20027;-77
2024/04/26 05:11:57;;;;;;;1.27;0.60;;;;;;;;;;6690406;26;20441;-77
2024/04/26 05:14:58;;;;;;;1.47;0.60;;;;;;;;;;6691392;26;19999;-78
2024/04/26 05:17:58;;;;;;;0.80;0.60;;;;;;;;;;6687231;26;20004;-77
2024/04/26 05:20:59;;;;;;;0.73;0.68;;;;;;;;;;6683406;26;20328;-77
2024/04/26 05:23:59;;;;;;;0.60;0.60;;;;;;;;;;6701396;26;20530;-77
2024/04/26 05:26:59;;;;;;;0.50;0.50;;;;;;;;;;6691988;26;20452;-77
2024/04/26 05:29:59;;;;;;;0.73;0.60;;;;;;;;;;6682103;26;20804;-79
2024/04/26 05:33:00;;;;;;;1.30;0.63;;;;;;;;;;6684967;26;19992;-77
2024/04/26 05:36:00;;;;;;;0.57;0.57;;;;;;;;;;6695854;26;19995;-78
2024/04/26 05:39:00;;;;;;;1.00;0.60;;;;;;;;;;6680807;26;20421;-78
2024/04/26 05:42:00;;;;;;;0.60;0.57;;;;;;;;;;6687623;26;20018;-78
2024/04/26 05:45:01;;;;;;;1.33;0.80;;;;;;;;;;6674726;26;20130;-77
2024/04/26 05:48:01;;;;;;;1.70;0.70;;;;;;;;;;6679614;26;20011;-77
2024/04/26 05:51:01;;;;;;;1.50;0.93;;;;;;;;;;6686204;26;20407;-77
2024/04/26 05:54:04;;;;;;;1.13;0.90;;;;;;;;;;6688818;26;20015;-77
2024/04/26 05:57:04;;;;;;;1.63;1.15;;;;;;;;;;6688697;26;20007;-77
2024/04/26 06:00:05;;;;;;;2.00;1.20;;;;;;;;;;6682603;26;19992;-77
2024/04/26 06:03:07;;;;;;;1.77;1.10;;;;;;;;;;6709875;26;20004;-77
2024/04/26 06:06:07;;;;;;;2.60;1.10;;;;;;;;;;6708862;26;20636;-77
2024/04/26 06:09:08;;;;;;;1.23;1.00;;;;;;;;;;6726596;26;20007;-77
2024/04/26 06:12:08;;;;;;;1.37;1.03;;;;;;;;;;6688164;26;20014;-77
2024/04/26 06:15:08;;;;;;;1.17;0.93;;;;;;;;;;6694662;26;19995;-76
2024/04/26 06:18:08;;;;;;;1.60;0.97;;;;;;;;;;6668287;26;20459;-78
2024/04/26 06:21:09;;;;;;;1.87;1.00;;;;;;;;;;6734349;26;20100;-77
2024/04/26 06:24:09;;;;;;;2.40;1.10;;;;;;;;;;6716941;26;20006;-77
2024/04/26 06:27:09;;;;;;;1.90;1.07;;;;;;;;;;6726393;26;20016;-78
2024/04/26 06:30:10;;;;;;;1.63;1.20;;;;;;;;;;6725738;26;20006;-77
2024/04/26 06:33:10;;;;;;;1.50;1.27;;;;;;;;;;6710397;26;19996;-85
2024/04/26 06:36:10;;;;;;;1.00;0.90;;;;;;;;;;6698835;26;20317;-78
2024/04/26 06:39:11;;;;;;;1.20;1.10;;;;;;;;;;6726552;26;20299;-78
2024/04/26 06:42:11;;;;;;;1.50;1.03;;;;;;;;;;6724222;26;20010;-79
2024/04/26 06:45:11;;;;;;;1.70;1.37;;;;;;;;;;6697804;26;20015;-79
2024/04/26 06:48:12;;;;;;;2.30;1.37;;;;;;;;;;6711254;26;19996;-83
2024/04/26 06:51:12;;;;;;;1.90;1.20;;;;;;;;;;6688334;26;20436;-83
2024/04/26 06:54:12;;;;;;;2.03;1.17;;;;;;;;;;6686462;26;20040;-78
2024/04/26 06:57:12;;;;;;;1.13;1.03;;;;;;;;;;6711844;26;20010;-77
2024/04/26 07:00:13;;;;;;;1.20;0.80;;;;;;;;;;6711299;26;19995;-77
2024/04/26 07:03:14;;;;;;;0.97;0.90;;;;;;;;;;6682562;26;20015;-76
2024/04/26 07:06:15;;;;;;;0.80;0.80;;;;;;;;;;6698059;26;19995;-76
2024/04/26 07:09:15;;;;;;;1.20;1.00;;;;;;;;;;6716541;26;20004;-77
2024/04/26 07:12:15;;;;;;;1.50;1.40;;;;;;;;;;6702405;26;19996;-76
2024/04/26 07:15:15;;;;;;;1.20;1.10;;;;;;;;;;6698857;26;20023;-77
2024/04/26 07:18:16;;;;;;;1.10;1.00;;;;;;;;;;6691200;26;20009;-77
2024/04/26 07:21:16;;;;;;;1.17;1.07;;;;;;;;;;6713477;26;20000;-77
2024/04/26 07:24:16;;;;;;;1.13;1.03;;;;;;;;;;6692712;26;19996;-76
2024/04/26 07:27:17;;;;;;;2.07;1.40;;;;;;;;;;6704900;26;20000;-77
2024/04/26 07:30:17;;;;;;;1.20;1.00;;;;;;;;;;6681762;26;20000;-77
2024/04/26 07:33:25;;;;;;;1.43;1.17;;;;;;;;;;6694832;26;20012;-78
2024/04/26 07:36:25;;;;;;;1.40;1.10;;;;;;;;;;6690857;26;20535;-77
2024/04/26 07:39:26;;;;;;;1.40;1.10;;;;;;;;;;6685520;26;20016;-77
2024/04/26 07:42:26;;;;;;;2.53;1.40;;;;;;;;;;6689266;26;19999;-77
2024/04/26 07:45:26;;;;;;;1.37;1.20;;;;;;;;;;6680097;26;20043;-77
2024/04/26 07:48:26;;;;;;;1.07;0.93;;;;;;;;;;6681494;26;20318;-77
2024/04/26 07:51:27;;;;;;;2.03;1.23;;;;;;;;;;6690597;26;20448;-77
2024/04/26 07:54:27;;;;;;;1.50;1.10;;;;;;;;;;6684977;26;20004;-77
2024/04/26 07:57:27;;;;;;;1.73;1.10;;;;;;;;;;6694322;26;19988;-77
2024/04/26 08:00:27;;;;;;;1.27;1.17;;;;;;;;;;6697241;26;20008;-77
2024/04/26 08:03:28;;;;;;;1.43;1.17;;;;;;;;;;6684476;26;20017;-77
2024/04/26 08:06:28;;;;;;;2.00;1.30;;;;;;;;;;6655951;26;19996;-77
2024/04/26 08:09:28;;;;;;;1.30;1.20;;;;;;;;;;6697979;26;20387;-77
2024/04/26 08:12:28;;;;;;;1.67;1.33;;;;;;;;;;6690809;26;20011;-77
2024/04/26 08:15:29;;;;;;;1.40;1.07;;;;;;;;;;6690546;26;20074;-77
2024/04/26 08:18:29;;;;;;;1.33;1.23;;;;;;;;;;6669905;26;20068;-77
2024/04/26 08:21:29;;;;;;;3.60;1.30;;;;;;;;;;6697252;26;20007;-77
2024/04/26 08:24:29;;;;;;;1.53;1.43;;;;;;;;;;6679100;26;20024;-78
2024/04/26 08:27:30;;;;;;;1.60;1.30;;;;;;;;;;6678916;26;20012;-78
2024/04/26 08:30:31;;;;;;;1.27;1.17;;;;;;;;;;6682187;26;20048;-78
2024/04/26 08:33:31;;;;;;;1.65;1.10;;;;;;;;;;6691739;26;20011;-78
2024/04/26 08:36:32;;;;;;;1.30;1.20;;;;;;;;;;6651818;26;20811;-78
2024/04/26 08:39:32;;;;;;;2.13;1.30;;;;;;;;;;6688566;26;20441;-78
2024/04/26 08:42:33;;;;;;;1.30;1.10;;;;;;;;;;6697431;26;20226;-78
2024/04/26 08:45:35;;;;;;;1.13;0.97;;;;;;;;;;6692601;26;20028;-78
2024/04/26 08:48:38;;;;;;;1.02;0.93;;;;;;;;;;6673494;26;20161;-77
2024/04/26 08:51:40;;;;;;;1.10;1.00;;;;;;;;;;6673112;26;20032;-78
2024/04/26 08:54:40;;;;;;;0.82;0.82;;;;;;;;;;6689772;26;20004;-78
2024/04/26 08:57:41;;;;;;;1.63;1.02;;;;;;;;;;6698799;26;20426;-78
2024/04/26 09:00:41;;;;;;;0.80;0.80;;;;;;;;;;6311674;26;10000172;-76
2024/04/26 09:03:42;;;;;;;1.00;0.90;;;;;;;;;;6669285;26;19996;-76
2024/04/26 09:06:43;;;;;;;0.98;0.95;;;;;;;;;;6702309;26;20000;-76
2024/04/26 09:09:44;;;;;;;1.43;0.80;;;;;;;;;;6740961;26;20377;-76
2024/04/26 09:12:46;;;;;;;0.68;0.68;;;;;;;;;;6678659;26;20448;-76
2024/04/26 09:15:46;;;;;;;1.05;0.93;;;;;;;;;;6671255;26;20451;-76
2024/04/26 09:18:46;;;;;;;0.80;0.80;;;;;;;;;;6715635;26;19991;-75
2024/04/26 09:21:47;;;;;;;1.00;0.80;;;;;;;;;;6714895;26;20510;-76
2024/04/26 09:24:47;;;;;;;0.53;0.53;;;;;;;;;;6693871;26;19996;-76
2024/04/26 09:27:47;;;;;;;1.17;0.80;;;;;;;;;;6727193;26;19991;-76
2024/04/26 09:30:48;;;;;;;1.30;0.90;;;;;;;;;;6718628;26;19991;-76
2024/04/26 09:33:51;;;;;;;1.10;0.90;;;;;;;;;;6730842;26;20436;-76
2024/04/26 09:36:51;;;;;;;0.88;0.85;;;;;;;;;;6699797;26;20337;-76
2024/04/26 09:39:52;;;;;;;1.67;1.30;;;;;;;;;;6686819;26;20016;-76
2024/04/26 09:42:54;;;;;;;1.63;1.25;;;;;;;;;;6707791;26;20460;-76
2024/04/26 09:45:55;;;;;;;1.15;1.05;;;;;;;;;;6665312;26;20000;-76
2024/04/26 09:48:55;;;;;;;1.45;1.00;;;;;;;;;;6682933;26;20032;-76
2024/04/26 09:51:57;;;;;;;0.70;0.70;;;;;;;;;;6683825;26;20429;-76
2024/04/26 09:54:58;;;;;;;0.77;0.77;;;;;;;;;;6682397;26;20001;-77
2024/04/26 09:57:58;;;;;;;1.35;0.65;;;;;;;;;;6683321;26;20006;-77
2024/04/26 10:00:59;;;;;;;0.50;0.50;;;;;;;;;;6687787;26;20010;-77
2024/04/26 10:04:01;;;;;;;0.77;0.60;;;;;;;;;;6725682;26;20347;-77
2024/04/26 10:07:01;;;;;;;0.60;0.60;;;;;;;;;;6683614;26;19997;-77
2024/04/26 10:10:02;;;;;;;0.50;0.40;;;;;;;;;;6682878;26;20038;-77
2024/04/26 10:13:15;;;;;;;1.20;0.80;;;;;;;;;;6664414;26;20032;-78
2024/04/26 10:16:26;;;;;;;1.23;0.73;;;;;;;;;;6673473;26;20000;-77
2024/04/26 10:19:26;;;;;;;1.58;0.63;;;;;;;;;;6683074;26;20015;-78
2024/04/26 10:22:26;;;;;;;0.37;0.30;;;;;;;;;;6708187;26;20464;-78
2024/04/26 10:25:27;;;;;;;0.60;0.60;;;;;;;;;;6701823;26;20441;-77
2024/04/26 10:28:28;;;;;;;0.40;0.40;;;;;;;;;;6702924;26;20018;-78
2024/04/26 10:31:29;;;;;;;0.25;0.25;;;;;;;;;;6726177;26;20240;-79
2024/04/26 10:34:31;;;;;;;0.30;0.30;;;;;;;;;;6690441;26;20439;-80
2024/04/26 10:37:32;;;;;;;0.38;0.38;;;;;;;;;;6700238;26;20004;-77
2024/04/26 10:40:42;;;;;;;0.33;0.33;;;;;;;;;;6682804;26;20061;-78
2024/04/26 10:43:43;;;;;;;0.35;0.32;;;;;;;;;;6694093;26;20000;-78
2024/04/26 10:46:43;;;;;;;0.43;0.37;;;;;;;;;;6686684;26;20372;-78
2024/04/26 10:49:44;;;;;;;0.30;0.30;;;;;;;;;;6650829;26;20012;-77
2024/04/26 10:52:44;;;;;;;0.30;0.30;;;;;;;;;;6721729;26;20004;-77
2024/04/26 10:55:44;;;;;;;0.57;0.50;;;;;;;;;;6723694;26;20471;-77
2024/04/26 10:58:45;;;;;;;1.60;0.50;;;;;;;;;;6711285;26;20488;-77
2024/04/26 11:01:45;;;;;;;0.65;0.50;;;;;;;;;;6712851;26;20007;-77
2024/04/26 11:04:46;;;;;;;0.60;0.60;;;;;;;;;;6718179;26;20003;-77
2024/04/26 11:07:53;;;;;;;0.57;0.47;;;;;;;;;;6708031;26;20014;-77
2024/04/26 11:10:57;;;;;;;0.63;0.32;;;;;;;;;;6683372;26;20341;-78
2024/04/26 11:14:00;;;;;;;0.40;0.30;;;;;;;;;;6685082;26;20015;-79
2024/04/26 11:17:00;;;;;;;0.20;0.20;;;;;;;;;;6681265;26;20349;-79
2024/04/26 11:20:00;;;;;;;2.17;1.97;;;;;;;;;;6693993;26;19995;-79
2024/04/26 11:23:00;;;;;;;2.03;1.60;;;;;;;;;;6681368;26;20454;-78
2024/04/26 11:26:01;;;;;;;1.33;1.00;;;;;;;;;;6681399;26;20510;-79
2024/04/26 11:29:01;;;;;;;;;;;;;;;;;;6707971;26;20326;-79
2024/04/26 11:32:01;;;;;;;1.33;0.60;;;;;;;;;;6681150;26;19956;-79
2024/04/26 11:35:01;;;;;;;1.97;0.57;;;;;;;;;;6687133;26;20004;-77
2024/04/26 11:38:01;;;;;;;0.60;0.47;;;;;;;;;;6687639;26;19999;-79
2024/04/26 11:41:02;;;;;;;0.40;0.40;;;;;;;;;;6698916;26;20430;-80
2024/04/26 11:44:02;;;;;;;0.60;0.30;;;;;;;;;;6708472;26;20226;-77
2024/04/26 11:47:02;;;;;;;0.30;0.30;;;;;;;;;;6699270;26;20340;-78
2024/04/26 11:50:02;;;;;;;;;;;;;;;;;;6683402;26;20712;-78
2024/04/26 11:53:03;;;;;;;0.40;0.40;;;;;;;;;;6689394;26;19925;-77
2024/04/26 11:56:03;;;;;;;;;;;;;;;;;;6689628;26;20437;-77
2024/04/26 11:59:03;;;;;;;0.40;0.30;;;;;;;;;;6732603;26;19926;-77
2024/04/26 12:02:03;;;;;;;0.30;0.30;;;;;;;;;;6702290;26;20376;-77
2024/04/26 12:05:04;;;;;;;0.30;0.30;;;;;;;;;;6723937;26;20445;-77
2024/04/26 12:08:05;;;;;;;0.82;0.40;;;;;;;;;;6721495;26;20225;-77
2024/04/26 12:11:07;;;;;;;0.28;0.28;;;;;;;;;;6721932;26;20367;-77
2024/04/26 12:14:07;;;;;;;0.30;0.30;;;;;;;;;;6710449;26;20597;-78
2024/04/26 12:17:07;;;;;;;0.37;0.37;;;;;;;;;;6692643;26;20000;-77
2024/04/26 12:20:07;;;;;;;;;;;;;;;;;;6724633;26;20028;-78
2024/04/26 12:23:08;;;;;;;0.93;0.30;;;;;;;;;;6721984;26;19969;-77
2024/04/26 12:26:24;;;;;;;0.20;0.20;;;;;;;;;;6682502;26;20352;-78
2024/04/26 12:29:24;;;;;;;0.30;0.30;;;;;;;;;;6680504;26;19992;-78
2024/04/26 12:32:24;;;;;;;0.40;0.40;;;;;;;;;;6680044;26;20003;-76
2024/04/26 12:35:25;;;;;;;;;;;;;;;;;;6707760;26;20439;-76
2024/04/26 12:38:25;;;;;;;0.30;0.30;;;;;;;;;;6722002;26;20007;-77
2024/04/26 12:41:25;;;;;;;1.20;0.30;;;;;;;;;;6712235;26;20008;-76
2024/04/26 12:44:25;;;;;;;0.47;0.40;;;;;;;;;;6716912;26;20021;-76
2024/04/26 12:47:26;;;;;;;;;;;;;;;;;;6723924;26;20335;-76
2024/04/26 12:50:26;;;;;;;0.30;0.30;;;;;;;;;;6696312;26;20381;-76
2024/04/26 12:53:26;;;;;;;;;;;;;;;;;;6706041;26;20011;-76
2024/04/26 12:56:28;;;;;;;0.30;0.30;;;;;;;;;;6722374;26;19931;-76
2024/04/26 12:59:29;;;;;;;0.20;0.20;;;;;;;;;;6696138;26;20168;-76
2024/04/26 13:02:29;;;;;;;0.50;0.40;;;;;;;;;;6676982;26;20000;-76
2024/04/26 13:05:29;;;;;;;0.43;0.43;;;;;;;;;;6684004;26;20442;-76
2024/04/26 13:08:30;;;;;;;;;;;;;;;;;;6698315;26;20322;-76
2024/04/26 13:11:30;;;;;;;0.35;0.30;;;;;;;;;;6706066;26;20465;-76
2024/04/26 13:14:31;;;;;;;0.40;0.40;;;;;;;;;;6701758;26;20000;-76
2024/04/26 13:17:31;;;;;;;;;;;;;;;;;;6705184;26;20004;-76
2024/04/26 13:20:31;;;;;;;0.32;0.32;;;;;;;;;;6717429;26;19925;-76
2024/04/26 13:23:31;;;;;;;0.30;0.30;;;;;;;;;;6726194;26;20067;-76
2024/04/26 13:26:31;;;;;;;0.40;0.40;;;;;;;;;;6723017;26;20402;-76
2024/04/26 13:29:32;;;;;;;0.40;0.40;;;;;;;;;;6724515;26;20403;-76
2024/04/26 13:32:32;;;;;;;0.60;0.43;;;;;;;;;;6700969;26;20332;-76
2024/04/26 13:35:32;;;;;;;0.40;0.33;;;;;;;;;;6696918;26;20314;-75
2024/04/26 13:38:33;;;;;;;0.45;0.40;;;;;;;;;;6682460;26;20048;-76
2024/04/26 13:41:33;;;;;;;0.40;0.40;;;;;;;;;;6718868;26;20437;-76
2024/04/26 13:44:33;;;;;;;;;;;;;;;;;;6725563;26;20015;-76
2024/04/26 13:47:34;;;;;;;0.52;0.30;;;;;;;;;;6724658;26;19925;-76
2024/04/26 13:50:34;;;;;;;1.30;0.60;;;;;;;;;;6738811;26;20365;-76
2024/04/26 13:53:34;;;;;;;0.80;0.63;;;;;;;;;;6720943;26;20006;-76
2024/04/26 13:56:34;;;;;;;;;;;;;;;;;;6697800;26;20007;-76
2024/04/26 13:59:35;;;;;;;0.47;0.40;;;;;;;;;;6691131;26;19925;-76
2024/04/26 14:02:35;;;;;;;;;;;;;;;;;;6720939;26;20344;-76
2024/04/26 14:05:35;;;;;;;0.30;0.30;;;;;;;;;;6727310;26;19957;-76
2024/04/26 14:08:37;;;;;;;0.30;0.30;;;;;;;;;;6720718;26;20476;-76
2024/04/26 14:11:41;;;;;;;0.40;0.40;;;;;;;;;;6685064;26;20073;-76
2024/04/26 14:14:42;;;;;;;0.52;0.40;;;;;;;;;;6651240;26;20077;-76
2024/04/26 14:17:44;;;;;;;0.37;0.37;;;;;;;;;;6689253;26;20450;-77
2024/04/26 14:20:44;;;;;;;0.85;0.40;;;;;;;;;;6726453;26;20230;-76
2024/04/26 14:23:45;;;;;;;0.40;0.40;;;;;;;;;;6722291;26;20525;-76
2024/04/26 14:26:45;;;;;;;0.60;0.50;;;;;;;;;;6717110;26;20464;-76
2024/04/26 14:29:45;;;;;;;0.40;0.40;;;;;;;;;;6659043;26;20237;-76
2024/04/26 14:32:46;;;;;;;0.47;0.40;;;;;;;;;;6722328;26;20233;-76
2024/04/26 14:35:46;;;;;;;0.40;0.40;;;;;;;;;;6722891;26;20006;-76
2024/04/26 14:38:46;;;;;;;0.70;0.57;;;;;;;;;;6708278;26;20574;-76
2024/04/26 14:41:46;;;;;;;;;;;;;;;;;;6682415;26;20011;-76
2024/04/26 14:44:47;;;;;;;0.30;0.30;;;;;;;;;;6705047;26;19925;-76
2024/04/26 14:47:47;;;;;;;;;;;;;;;;;;6738644;26;20511;-76
2024/04/26 14:50:47;;;;;;;0.40;0.30;;;;;;;;;;6681189;26;20366;-76
2024/04/26 14:53:47;;;;;;;;;;;;;;;;;;6680987;26;20000;-77
2024/04/26 14:56:47;;;;;;;0.35;0.35;;;;;;;;;;6680710;26;19937;-77
2024/04/26 14:59:49;;;;;;;0.50;0.37;;;;;;;;;;6716800;26;19999;-76
2024/04/26 15:02:53;;;;;;;1.45;0.40;;;;;;;;;;6693837;26;20335;-76
2024/04/26 15:05:53;;;;;;;0.45;0.40;;;;;;;;;;6725429;26;20010;-76
2024/04/26 15:08:53;;;;;;;0.57;0.50;;;;;;;;;;6714771;26;20028;-77
2024/04/26 15:11:54;;;;;;;0.30;0.30;;;;;;;;;;6724550;26;19996;-76
2024/04/26 15:14:54;;;;;;;0.60;0.40;;;;;;;;;;6685720;26;20015;-76
2024/04/26 15:17:54;;;;;;;0.47;0.47;;;;;;;;;;6679147;26;20024;-76
2024/04/26 15:20:55;;;;;;;;;;;;;;;;;;6680291;26;20008;-76
2024/04/26 15:23:55;;;;;;;0.55;0.45;;;;;;;;;;6695416;26;19924;-78
2024/04/26 15:26:56;;;;;;;;;;;;;;;;;;6723203;26;20336;-77
2024/04/26 15:29:56;;;;;;;2.20;0.75;;;;;;;;;;6734956;26;19940;-77
2024/04/26 15:32:56;;;;;;;0.95;0.77;;;;;;;;;;6722352;26;20010;-77
2024/04/26 15:35:56;;;;;;;1.43;0.77;;;;;;;;;;6697546;26;20337;-76
2024/04/26 15:38:57;;;;;;;0.60;0.60;;;;;;;;;;6679968;26;20427;-76
2024/04/26 15:41:57;;;;;;;;;;;;;;;;;;6701527;26;20325;-77
2024/04/26 15:44:57;;;;;;;0.30;0.20;;;;;;;;;;6740041;26;20350;-76
2024/04/26 15:47:57;;;;;;;0.40;0.40;;;;;;;;;;6715017;26;20268;-76
2024/04/26 15:50:58;;;;;;;0.30;0.30;;;;;;;;;;6695614;26;20077;-75
2024/04/26 15:53:58;;;;;;;0.47;0.47;;;;;;;;;;6714317;26;20417;-76
2024/04/26 15:56:58;;;;;;;0.40;0.40;;;;;;;;;;6718708;26;20332;-77
2024/04/26 15:59:58;;;;;;;;;;;;;;;;;;6709801;26;20469;-76
2024/04/26 16:02:58;;;;;;;0.15;0.15;;;;;;;;;;6689014;26;19924;-76
2024/04/26 16:05:59;;;;;;;0.20;0.20;;;;;;;;;;6698908;26;20437;-76
2024/04/26 16:08:59;;;;;;;;;;;;;;;;;;6649691;26;20023;-76
2024/04/26 16:11:59;;;;;;;0.30;0.30;;;;;;;;;;6716576;26;19937;-75
2024/04/26 16:14:59;;;;;;;0.50;0.43;;;;;;;;;;6691136;26;20459;-76
2024/04/26 16:18:00;;;;;;;0.55;0.52;;;;;;;;;;6684003;26;20040;-76
2024/04/26 16:21:01;;;;;;;0.27;0.27;;;;;;;;;;6692972;26;20457;-76
2024/04/26 16:24:01;;;;;;;0.57;0.40;;;;;;;;;;6701855;26;20565;-77
2024/04/26 16:27:01;;;;;;;0.43;0.40;;;;;;;;;;6712516;26;20007;-78
2024/04/26 16:30:01;;;;;;;0.30;0.30;;;;;;;;;;6720991;26;20304;-78
2024/04/26 16:33:01;;;;;;;;;;;;;;;;;;6690834;26;20440;-76
2024/04/26 16:36:02;;;;;;;0.45;0.30;;;;;;;;;;6704177;26;19925;-77
2024/04/26 16:39:05;;;;;;;0.50;0.30;;;;;;;;;;6735043;26;20039;-80
2024/04/26 16:42:05;;;;;;;0.38;0.38;;;;;;;;;;6710848;26;20004;-78
2024/04/26 16:45:06;;;;;;;0.65;0.57;;;;;;;;;;6695598;26;20437;-77
2024/04/26 16:48:06;;;;;;;0.50;0.50;;;;;;;;;;6683435;26;20003;-78
2024/04/26 16:51:07;;;;;;;0.43;0.20;;;;;;;;;;6703444;26;19996;-77
2024/04/26 16:54:08;;;;;;;0.88;0.40;;;;;;;;;;6708473;26;19996;-74
2024/04/26 16:57:08;;;;;;;0.30;0.30;;;;;;;;;;6710966;26;20333;-75
2024/04/26 17:00:13;;;;;;;0.30;0.30;;;;;;;;;;6711929;26;20557;-76
2024/04/26 17:03:14;;;;;;;0.88;0.40;;;;;;;;;;6701583;26;20242;-76
2024/04/26 17:06:15;;;;;;;;;;;;;;;;;;6702197;26;20004;-75
2024/04/26 17:09:15;;;;;;;0.30;0.30;;;;;;;;;;6716617;26;19925;-76
2024/04/26 17:12:15;;;;;;;0.30;0.30;;;;;;;;;;6682272;26;20459;-76
2024/04/26 17:15:17;;;;;;;0.60;0.50;;;;;;;;;;6684729;26;20012;-76
2024/04/26 17:18:17;;;;;;;0.47;0.47;;;;;;;;;;6698384;26;20021;-76
2024/04/26 17:21:17;;;;;;;0.50;0.40;;;;;;;;;;6672497;26;20004;-74
2024/04/26 17:24:17;;;;;;;0.33;0.33;;;;;;;;;;6703054;26;20000;-76
2024/04/26 17:27:18;;;;;;;0.40;0.40;;;;;;;;;;6683627;26;20252;-76
2024/04/26 17:30:18;;;;;;;0.53;0.40;;;;;;;;;;6725395;26;20429;-77
2024/04/26 17:33:18;;;;;;;0.40;0.40;;;;;;;;;;6723476;26;19991;-76
2024/04/26 17:36:19;;;;;;;1.07;0.47;;;;;;;;;;6758619;26;20015;-75
2024/04/26 17:39:19;;;;;;;1.30;0.80;;;;;;;;;;6720229;26;20727;-77
2024/04/26 17:42:19;;;;;;;0.40;0.40;;;;;;;;;;6692551;26;20472;-77
2024/04/26 17:45:19;;;;;;;0.60;0.50;;;;;;;;;;6725309;26;20525;-76
2024/04/26 17:48:19;;;;;;;0.63;0.50;;;;;;;;;;6710371;26;20356;-77
2024/04/26 17:51:21;;;;;;;0.50;0.47;;;;;;;;;;6691732;26;20015;-77
2024/04/26 17:54:21;;;;;;;0.43;0.43;;;;;;;;;;6681806;26;19992;-77
2024/04/26 17:57:22;;;;;;;0.50;0.50;;;;;;;;;;6722785;26;20366;-76
2024/04/26 18:00:22;;;;;;;1.23;0.60;;;;;;;;;;6695084;26;20022;-76
2024/04/26 18:03:22;;;;;;;1.27;0.60;;;;;;;;;;6688434;26;20073;-77
2024/04/26 18:06:22;;;;;;;1.20;0.70;;;;;;;;;;6684568;26;20477;-76
2024/04/26 18:09:23;;;;;;;0.63;0.50;;;;;;;;;;6702204;26;20580;-76
2024/04/26 18:12:23;;;;;;;0.83;0.50;;;;;;;;;;6708020;26;20000;-76